Hlavní strana
METAR-TAF:

METAR-TAF

Letiště :

Mezinárodní letiště Gibraltar

Gibraltar, Gibraltar

zeměpisná šířka: 36-09N, zeměpisná délka: 005-21W, výška: 5 m

Aktuální stav počasí

Zpráva byla vytvořena před 25 minutami, v 22:50 UTC
Východní vítr 27 kt
Teplota 16°C
Vlhkost vzduchu 77%
Tlak 1028 hPa
Viditelnost: 8000 m
zákal

METAR: LXGB 242250Z AUTO 10027KT 8000 HZ FEW017/// BKN023/// 16/12 Q1028

Čas: 00:15 (23:15 UTC)

Předpověď počasí

Zpráva byla vytvořena před 6 hodinami a 47 minutami, v 16:28 UTC
Předpověď platná od 24 v 18 UTC do 24 v 23 UTC
Východní vítr 19 kt s nárazy do 29 kt
Viditelnost: 7000 m
Polojasno ve výšce 1400 ft
Oblačno až skoro zataženo ve výšce 3500 ft
zákal
Pravděpodobnost 40%
od 24 v 18 UTC do 24 v 23 UTC
Viditelnost: 9000 m
Skoro jasno ve výšce 1400 ft
zákal

TAF: LXGB 241628Z 2418/2423 09019G29KT 7000 HZ SCT014 BKN035 PROB40 2418/2423 9000 HZ FEW014

Stav a předpovědi počasí z více než 4 000 letišť (zprávy METAR a TAF).

Červené a žluté tečky na mapě představují dostupné meteorologické stanice.

Když kurzor umístíte na tečku, zobrazí se název stanice.

Pak kliknutím zobrazíte stav a předpověď počasí.

Chcete-li změnit mapu, kliknutím na zelené tlačítko se znaménkem +mapu přiblížíte, kliknutím na zelené tlačítko se znaménkem – mapu oddálíte a kliknutím na zelené šipky přejdete na sousední mapy.


METAR-TAF: